ADDS METAR Data INFO
IDs: Format: Raw Decoded Include TAF

Data at: 0350 UTC 18 Oct 2017

KSBA 180253Z 19005KT 10SM CLR 23/07 A2988 RMK AO2 SLP119 T02280067 55003
KSBA 180153Z 00000KT 10SM CLR 24/09 A2988 RMK AO2 SLP118 T02440094
KSBA 180053Z 17010KT 10SM CLR 27/09 A2988 RMK AO2 SLP118 T02670089
KSBA 172353Z 22003KT 10SM SCT100 28/10 A2989 RMK AO2 SLP122 T02830100 10344 20228 55014
KSBA 172253Z 14010KT 10SM SCT100 30/12 A2989 RMK AO2 SLP121 T03000117
KSBA 172153Z 25007KT 10SM SCT100 33/06 A2990 RMK AO2 SLP126 T03280061
KSBA 172053Z 00000KT 10SM CLR 29/12 A2993 RMK AO2 SLP135 T02890122 58030
KSBA 171953Z 24006KT 10SM SCT110 26/14 A2998 RMK AO2 SLP152 T02610144
KSBA 171853Z 06005KT 10SM BKN120 27/11 A2999 RMK AO2 SLP156 T02720111
KSBA 171753Z 00000KT 10SM BKN120 22/17 A3002 RMK AO2 SLP166 T02220167 10239 20128 51016
KSBA 171653Z 06004KT 10SM FEW100 BKN140 22/16 A3000 RMK AO2 SLP160 T02220161
KSBA 171553Z 00000KT 10SM FEW100 BKN140 21/11 A3001 RMK AO2 SLP162 T02060106
KSBA 171453Z 13007KT 10SM CLR 17/08 A2997 RMK AO2 SLP150 T01720078 50003
KSBA 171353Z 00000KT 10SM CLR 17/07 A2999 RMK AO2 SLP154 T01670072
KSBA 171253Z 00000KT 10SM CLR 15/07 A2998 RMK AO2 SLP151 T01500067
KSBA 171153Z AUTO 28005KT 10SM CLR 13/07 A2996 RMK AO2 SLP146 T01280067 10167 20111 55010
KSBA 171053Z AUTO 07003KT 10SM CLR 13/06 A2996 RMK AO2 SLP145 T01280061
KSBA 170953Z AUTO 00000KT 10SM CLR 14/06 A2997 RMK AO2 SLP148 T01390061
KSBA 170853Z AUTO 33003KT 10SM CLR 13/08 A2999 RMK AO2 SLP156 T01330083 56006
KSBA 170753Z AUTO 00000KT 10SM CLR 13/09 A2999 RMK AO2 SLP157 T01280094 403060083
KSBA 170653Z AUTO 00000KT 10SM CLR 13/11 A3001 RMK AO2 SLP161 T01330111
KSBA 170553Z 00000KT 10SM CLR 15/12 A3001 RMK AO2 SLP162 T01500122 10272 20150 50007
KSBA 170453Z 05006KT 10SM CLR 17/12 A3001 RMK AO2 SLP163 T01670117
KSBA 170353Z 00000KT 10SM CLR 18/15 A2999 RMK AO2 SLP156 T01780150
KSBA 170253Z 07004KT 10SM CLR 19/16 A2999 RMK AO2 SLP155 T01940156 53001
KSBA 170153Z 00000KT 10SM CLR 19/16 A2998 RMK AO2 SLP151 T01890156
KSBA 170053Z 27006KT 10SM CLR 23/12 A2998 RMK AO2 PK WND 03045/0013 SLP151 T02330122
KSBA 162353Z VRB05KT 10SM CLR 27/06 A2999 RMK AO2 SLP154 T02720056 10306 20267 56010
KSBA 162253Z 10SM CLR 28/03 A2999 RMK AO2 SLP156 T02830028
KSBA 162153Z 24008KT 10SM CLR 30/02 A3000 RMK AO2 SLP157 T03000022
KSBA 162053Z 25011KT 10SM CLR 30/M01 A3002 RMK AO2 SLP164 T03001006 58019
KSBA 161953Z 27007KT 10SM CLR 28/07 A3004 RMK AO2 SLP172 T02830072
KSBA 161853Z 25005KT 10SM CLR 28/06 A3006 RMK AO2 SLP178 T02830056
KSBA 161753Z 25006KT 10SM CLR 27/04 A3007 RMK AO2 SLP183 T02670039 10272 20083 50004
KSBA 161653Z 15003KT 10SM CLR 24/06 A3008 RMK AO2 SLP184 T02440061
KSBA 161553Z 00000KT 10SM CLR 21/01 A3008 RMK AO2 SLP184 T02060011